createdAt,value
2022-09-07T00:01:56.474Z,76.36
2022-09-07T00:04:23.268Z,77.41
2022-09-07T00:06:50.130Z,77.99
2022-09-07T00:09:16.784Z,77.33
2022-09-07T00:11:43.652Z,77.55
2022-09-07T00:14:10.342Z,77.67
2022-09-07T00:16:37.133Z,76.52
2022-09-07T00:19:04.741Z,75.87
2022-09-07T00:21:31.832Z,75.72
2022-09-07T00:23:58.483Z,76.29
2022-09-07T00:26:28.320Z,77.43
2022-09-07T00:29:03.008Z,76.70
2022-09-07T00:31:31.411Z,76.09
2022-09-07T00:34:01.223Z,75.57
2022-09-07T00:36:28.366Z,75.83
2022-09-07T00:38:55.201Z,75.70
2022-09-07T00:41:22.854Z,76.06
2022-09-07T00:43:52.882Z,77.77
2022-09-07T00:46:22.766Z,78.97
2022-09-07T00:49:01.956Z,78.31
2022-09-07T00:51:52.415Z,78.30
2022-09-07T00:54:26.409Z,77.96
2022-09-07T00:56:53.723Z,78.01
2022-09-07T00:59:25.497Z,77.92
2022-09-07T01:01:52.735Z,77.56
2022-09-07T01:04:21.520Z,76.75
2022-09-07T01:06:49.231Z,77.61
2022-09-07T01:09:19.581Z,76.69
2022-09-07T01:11:46.636Z,77.04
2022-09-07T01:14:15.322Z,76.57
2022-09-07T01:17:00.735Z,76.32
2022-09-07T01:20:06.275Z,76.06
2022-09-07T01:22:42.166Z,76.76
2022-09-07T01:25:27.653Z,77.26
2022-09-07T01:27:57.465Z,76.91
2022-09-07T01:30:24.841Z,76.38
2022-09-07T01:33:03.680Z,75.82
2022-09-07T01:35:51.873Z,75.30
2022-09-07T01:38:37.054Z,75.17
2022-09-07T01:41:31.664Z,76.25
2022-09-07T01:44:20.319Z,74.63
2022-09-07T01:46:52.808Z,74.76
2022-09-07T01:49:54.488Z,75.07
2022-09-07T01:52:34.913Z,75.20
2022-09-07T01:55:27.834Z,75.41
2022-09-07T01:58:10.509Z,74.98
2022-09-07T02:00:39.814Z,75.40
2022-09-07T02:03:06.490Z,75.98
2022-09-07T02:06:10.447Z,76.15
2022-09-07T02:08:47.618Z,76.11
2022-09-07T02:11:20.008Z,75.36
2022-09-07T02:14:12.932Z,75.48
2022-09-07T02:16:48.857Z,77.00
2022-09-07T02:19:17.933Z,76.86
2022-09-07T02:21:50.160Z,76.25
2022-09-07T02:24:28.996Z,76.09
2022-09-07T02:26:58.690Z,75.23
2022-09-07T02:29:29.166Z,74.93
2022-09-07T02:31:57.748Z,75.19
2022-09-07T02:34:24.918Z,74.98
2022-09-07T02:36:53.786Z,74.32
2022-09-07T02:39:20.513Z,73.83
2022-09-07T02:41:47.510Z,73.65
2022-09-07T02:44:19.371Z,74.48
2022-09-07T02:46:59.304Z,74.65
2022-09-07T02:49:48.014Z,74.67
2022-09-07T02:52:44.309Z,74.76
2022-09-07T02:55:44.922Z,74.82
2022-09-07T02:58:39.191Z,74.91
2022-09-07T03:01:35.790Z,74.78
2022-09-07T03:04:25.467Z,74.89
2022-09-07T03:07:02.519Z,74.84
2022-09-07T03:09:36.031Z,74.68
2022-09-07T03:12:06.368Z,74.39
2022-09-07T03:14:33.324Z,74.49
2022-09-07T03:17:00.693Z,74.01
2022-09-07T03:19:27.516Z,74.11
2022-09-07T03:21:54.273Z,74.50
2022-09-07T03:24:20.979Z,74.09
2022-09-07T03:26:48.729Z,73.50
2022-09-07T03:29:15.593Z,74.25
2022-09-07T03:31:42.395Z,74.48
2022-09-07T03:34:09.244Z,74.16
2022-09-07T03:36:36.148Z,74.47
2022-09-07T03:39:03.548Z,74.55
2022-09-07T03:41:30.283Z,75.22
2022-09-07T03:43:56.926Z,75.41
2022-09-07T03:46:23.690Z,76.19
2022-09-07T03:48:50.343Z,77.63
2022-09-07T03:51:18.275Z,76.61
2022-09-07T03:53:46.364Z,77.04
2022-09-07T03:56:19.367Z,77.16
2022-09-07T03:58:47.468Z,83.16
2022-09-07T04:01:17.449Z,89.70
2022-09-07T04:03:45.709Z,89.12
2022-09-07T04:06:12.897Z,89.49
2022-09-07T04:08:42.441Z,89.81
2022-09-07T04:11:13.394Z,89.66
2022-09-07T04:13:40.663Z,90.27
2022-09-07T04:16:14.394Z,89.15
2022-09-07T04:18:41.434Z,88.09
2022-09-07T04:21:08.623Z,88.22
2022-09-07T04:23:43.022Z,88.59
2022-09-07T04:26:22.393Z,86.65
2022-09-07T04:28:49.651Z,85.37
2022-09-07T04:31:18.059Z,83.38
2022-09-07T04:33:46.317Z,82.87
2022-09-07T04:36:13.736Z,82.51
2022-09-07T04:38:41.093Z,81.28
2022-09-07T04:41:14.657Z,81.21
2022-09-07T04:43:41.669Z,81.31
2022-09-07T04:46:15.532Z,81.34
2022-09-07T04:48:42.287Z,81.92
2022-09-07T04:51:10.834Z,81.45
2022-09-07T04:53:38.403Z,81.15
2022-09-07T04:56:05.343Z,80.65
2022-09-07T04:58:32.380Z,80.88
2022-09-07T05:01:06.169Z,80.42
2022-09-07T05:03:35.775Z,80.04
2022-09-07T05:06:05.903Z,79.87
2022-09-07T05:08:40.300Z,82.29
2022-09-07T05:11:07.733Z,84.45
2022-09-07T05:13:34.793Z,86.11
2022-09-07T05:16:08.423Z,84.78
2022-09-07T05:18:35.319Z,83.43
2022-09-07T05:21:13.436Z,82.58
2022-09-07T05:23:40.486Z,81.65
2022-09-07T05:26:08.231Z,80.86
2022-09-07T05:28:36.572Z,79.84
2022-09-07T05:36:41.079Z,78.65
2022-09-07T05:39:09.124Z,79.16
2022-09-07T05:41:35.932Z,79.54
2022-09-07T05:46:51.902Z,79.90
2022-09-07T05:49:18.550Z,79.28
2022-09-07T05:51:45.206Z,79.81
2022-09-07T05:54:11.943Z,79.30
2022-09-07T05:56:38.999Z,79.24
2022-09-07T05:59:05.723Z,78.84
2022-09-07T06:01:32.479Z,79.70
2022-09-07T06:04:00.203Z,80.34
2022-09-07T06:06:27.023Z,81.47
2022-09-07T06:08:54.314Z,81.52
2022-09-07T06:11:23.025Z,82.31
2022-09-07T06:13:50.025Z,83.36
2022-09-07T06:16:18.444Z,82.71
2022-09-07T06:18:46.800Z,81.50
2022-09-07T06:21:19.650Z,79.95
2022-09-07T06:23:47.752Z,79.32
2022-09-07T06:26:15.859Z,79.60
2022-09-07T06:28:47.696Z,78.57
2022-09-07T06:31:18.716Z,78.39
2022-09-07T06:33:46.107Z,79.12
2022-09-07T06:36:24.178Z,79.11
2022-09-07T06:38:51.795Z,80.29
2022-09-07T06:44:17.476Z,81.54
2022-09-07T06:49:31.202Z,82.17
2022-09-07T06:51:57.836Z,80.98
2022-09-07T06:57:11.269Z,80.42
2022-09-07T06:59:38.431Z,79.86
2022-09-07T07:02:06.463Z,79.02
2022-09-07T07:04:39.516Z,79.22
2022-09-07T07:07:10.679Z,78.05
2022-09-07T07:09:37.385Z,77.13
2022-09-07T07:12:04.332Z,76.71
2022-09-07T07:14:34.304Z,76.35
2022-09-07T07:17:03.095Z,75.44
2022-09-07T07:19:29.746Z,75.99
2022-09-07T07:24:43.355Z,73.37
2022-09-07T07:27:10.051Z,72.64
2022-09-07T07:29:36.970Z,72.41
2022-09-07T07:32:03.716Z,71.90
2022-09-07T07:34:30.451Z,72.00
2022-09-07T07:36:57.075Z,70.70
2022-09-07T07:42:11.391Z,69.63
2022-09-07T07:44:38.110Z,70.04
2022-09-07T07:47:04.885Z,68.63
2022-09-07T07:49:31.586Z,66.92
2022-09-07T07:54:48.912Z,66.88
2022-09-07T07:57:16.105Z,65.61
2022-09-07T07:59:42.833Z,65.66
2022-09-07T08:02:15.391Z,65.90
2022-09-07T08:04:42.394Z,65.28
2022-09-07T08:07:11.219Z,64.94
2022-09-07T08:09:43.241Z,62.67
2022-09-07T08:12:15.916Z,64.19
2022-09-07T08:14:43.448Z,62.89
2022-09-07T08:17:12.872Z,63.21
2022-09-07T08:19:40.139Z,63.23
2022-09-07T08:22:07.142Z,63.01
2022-09-07T08:24:34.140Z,63.21
2022-09-07T08:27:03.340Z,62.73
2022-09-07T08:29:33.798Z,59.49
2022-09-07T08:32:03.908Z,59.37
2022-09-07T08:34:31.266Z,59.48
2022-09-07T08:36:57.989Z,60.08
2022-09-07T08:39:25.625Z,58.39
2022-09-07T08:42:13.968Z,57.75
2022-09-07T08:45:00.384Z,55.08
2022-09-07T08:47:49.945Z,54.30
2022-09-07T08:50:28.236Z,54.07
2022-09-07T08:53:05.142Z,53.21
2022-09-07T08:55:36.597Z,54.22
2022-09-07T08:58:47.792Z,53.97
2022-09-07T09:04:16.645Z,53.68
2022-09-07T09:06:44.212Z,52.30
2022-09-07T09:09:48.776Z,51.16
2022-09-07T09:12:22.517Z,48.93
2022-09-07T09:15:04.080Z,51.24
2022-09-07T09:17:35.412Z,51.27
2022-09-07T09:20:23.168Z,51.36
2022-09-07T09:22:52.091Z,50.05
2022-09-07T09:25:21.588Z,48.54
2022-09-07T09:27:51.324Z,47.06
2022-09-07T09:30:22.841Z,47.40
2022-09-07T09:32:51.835Z,46.80
2022-09-07T09:35:27.588Z,45.92
2022-09-07T09:37:54.275Z,45.95
2022-09-07T09:40:30.806Z,46.21
2022-09-07T09:43:17.020Z,44.18
2022-09-07T09:48:38.536Z,44.18
2022-09-07T09:53:59.770Z,44.35
2022-09-07T09:56:44.535Z,44.05
2022-09-07T10:05:41.747Z,42.70
2022-09-07T10:08:25.544Z,43.74
2022-09-07T10:11:00.084Z,43.02
2022-09-07T10:13:32.754Z,42.76
2022-09-07T10:16:02.991Z,43.14
2022-09-07T10:18:37.763Z,43.15
2022-09-07T10:21:27.951Z,43.83
2022-09-07T10:24:14.331Z,43.84
2022-09-07T10:26:41.915Z,45.00
2022-09-07T10:29:29.795Z,44.23
2022-09-07T10:32:08.400Z,44.79
2022-09-07T10:35:01.332Z,44.01
2022-09-07T10:37:59.663Z,45.16
2022-09-07T10:40:34.972Z,44.53
2022-09-07T10:43:26.325Z,44.39
2022-09-07T10:46:05.062Z,44.72
2022-09-07T10:49:08.509Z,44.08
2022-09-07T10:51:53.060Z,43.69
2022-09-07T10:54:30.417Z,43.47
2022-09-07T10:57:04.184Z,42.29
2022-09-07T11:00:07.889Z,42.86
2022-09-07T11:05:42.967Z,42.80
2022-09-07T11:08:34.306Z,42.50
2022-09-07T11:14:23.719Z,43.69
2022-09-07T11:16:57.522Z,44.64
2022-09-07T11:19:39.524Z,44.04
2022-09-07T11:22:26.135Z,43.58
2022-09-07T11:27:53.673Z,43.68
2022-09-07T11:30:33.808Z,42.21
2022-09-07T11:33:12.632Z,43.22
2022-09-07T11:36:00.816Z,43.17
2022-09-07T11:38:44.832Z,42.33
2022-09-07T11:41:25.106Z,42.87
2022-09-07T11:44:35.290Z,42.29
2022-09-07T11:47:10.647Z,43.20
2022-09-07T11:49:37.404Z,41.62
2022-09-07T11:52:29.784Z,42.17
2022-09-07T11:55:02.282Z,42.27
2022-09-07T11:57:57.192Z,41.49
2022-09-07T12:00:38.166Z,41.47
2022-09-07T12:03:40.094Z,41.74
2022-09-07T12:06:43.994Z,41.04
2022-09-07T12:09:22.968Z,40.04
2022-09-07T12:12:31.219Z,38.96
2022-09-07T12:15:22.183Z,39.55
2022-09-07T12:18:19.514Z,40.00
2022-09-07T12:20:48.166Z,39.12
2022-09-07T12:23:17.460Z,38.41
2022-09-07T12:25:49.136Z,38.01
2022-09-07T12:28:24.998Z,39.09
2022-09-07T12:30:57.535Z,37.74
2022-09-07T12:33:29.932Z,38.42
2022-09-07T12:35:57.322Z,38.86
2022-09-07T12:38:30.314Z,38.41
2022-09-07T12:41:23.084Z,36.45
2022-09-07T12:44:05.266Z,38.07
2022-09-07T12:46:34.610Z,37.30
2022-09-07T12:49:24.711Z,35.96
2022-09-07T12:52:17.334Z,35.33
2022-09-07T12:55:09.914Z,35.03
2022-09-07T12:58:17.029Z,36.10
2022-09-07T13:01:05.197Z,36.06
2022-09-07T13:03:51.714Z,36.35
2022-09-07T13:07:06.832Z,36.18
2022-09-07T13:09:38.262Z,36.12
2022-09-07T13:15:46.579Z,36.90
2022-09-07T13:18:28.311Z,36.68
2022-09-07T13:21:07.213Z,38.14
2022-09-07T13:23:45.530Z,37.80
2022-09-07T13:26:33.972Z,38.20
2022-09-07T13:29:11.426Z,37.57
2022-09-07T13:31:58.529Z,36.92
2022-09-07T13:34:34.365Z,38.43
2022-09-07T13:37:04.684Z,37.76
2022-09-07T13:39:40.832Z,38.11
2022-09-07T13:42:12.735Z,39.80
2022-09-07T13:44:40.564Z,38.58
2022-09-07T13:47:07.168Z,38.41
2022-09-07T13:49:42.685Z,38.61
2022-09-07T13:52:27.897Z,38.24
2022-09-07T13:55:02.830Z,38.41
2022-09-07T13:57:48.140Z,38.50
2022-09-07T14:00:16.661Z,38.98
2022-09-07T14:02:43.843Z,39.21
2022-09-07T14:05:16.979Z,38.80
2022-09-07T14:07:49.283Z,38.79
2022-09-07T14:10:18.407Z,38.33
2022-09-07T14:13:05.529Z,39.16
2022-09-07T14:15:42.705Z,38.66
2022-09-07T14:18:15.392Z,39.09
2022-09-07T14:20:50.825Z,38.64
2022-09-07T14:23:33.500Z,38.88
2022-09-07T14:26:17.325Z,38.92
2022-09-07T14:28:46.493Z,38.54
2022-09-07T14:31:16.820Z,39.32
2022-09-07T14:34:00.440Z,39.41
2022-09-07T14:36:45.227Z,39.39
2022-09-07T14:39:15.311Z,39.12
2022-09-07T14:41:43.301Z,39.10
2022-09-07T14:44:33.853Z,38.31
2022-09-07T14:47:05.884Z,39.18
2022-09-07T14:49:33.241Z,38.58
2022-09-07T14:52:00.766Z,38.20
2022-09-07T14:54:34.874Z,37.10
2022-09-07T14:57:09.472Z,37.22
2022-09-07T14:59:44.731Z,36.95
2022-09-07T15:02:33.854Z,35.99
2022-09-07T15:05:19.426Z,35.98
2022-09-07T15:07:51.779Z,36.02
2022-09-07T15:10:21.172Z,37.06
2022-09-07T15:12:49.565Z,36.59
2022-09-07T15:15:21.459Z,36.19
2022-09-07T15:17:48.426Z,36.75
2022-09-07T15:20:41.157Z,37.34
2022-09-07T15:23:11.777Z,36.31
2022-09-07T15:25:40.605Z,36.45
2022-09-07T15:28:15.275Z,37.32
2022-09-07T15:33:48.071Z,35.94
2022-09-07T15:36:16.789Z,35.71
2022-09-07T15:41:30.740Z,36.00
2022-09-07T15:43:58.033Z,36.93
2022-09-07T15:46:25.390Z,36.36
2022-09-07T15:48:54.403Z,36.60
2022-09-07T15:54:13.964Z,37.19
2022-09-07T15:56:42.696Z,36.83
2022-09-07T15:59:11.215Z,37.36
2022-09-07T16:01:53.925Z,37.51
2022-09-07T16:04:23.611Z,37.57
2022-09-07T16:06:51.015Z,37.89
2022-09-07T16:09:21.538Z,38.50
2022-09-07T16:11:50.146Z,38.73
2022-09-07T16:14:17.894Z,39.24
2022-09-07T16:19:34.921Z,40.11
2022-09-07T16:22:02.284Z,39.06
2022-09-07T16:24:28.952Z,38.91
2022-09-07T16:26:55.701Z,39.07
2022-09-07T16:29:22.291Z,38.76
2022-09-07T16:34:36.044Z,39.37
2022-09-07T16:37:02.810Z,38.99
2022-09-07T16:39:29.550Z,38.60
2022-09-07T16:41:56.236Z,38.85
2022-09-07T16:44:23.284Z,38.93
2022-09-07T16:46:50.592Z,39.43
2022-09-07T16:49:18.210Z,39.79
2022-09-07T16:51:45.073Z,38.91
2022-09-07T16:54:13.137Z,38.92
2022-09-07T16:56:40.031Z,39.06
2022-09-07T16:59:07.951Z,39.35
2022-09-07T17:01:36.562Z,38.55
2022-09-07T17:04:08.239Z,39.02
2022-09-07T17:06:37.802Z,40.05
2022-09-07T17:09:04.465Z,39.62
2022-09-07T17:11:36.055Z,39.74
2022-09-07T17:14:03.765Z,40.11
2022-09-07T17:16:33.493Z,39.81
2022-09-07T17:21:47.908Z,39.99
2022-09-07T17:24:14.468Z,39.65
2022-09-07T17:26:42.588Z,39.47
2022-09-07T17:29:10.454Z,39.99
2022-09-07T17:34:25.700Z,40.54
2022-09-07T17:36:52.283Z,41.05
2022-09-07T17:39:19.670Z,41.01
2022-09-07T17:41:50.007Z,41.12
2022-09-07T17:44:16.999Z,41.11
2022-09-07T17:46:43.974Z,40.66
2022-09-07T17:49:11.291Z,40.33
2022-09-07T17:51:38.308Z,41.11
2022-09-07T17:54:10.227Z,41.49
2022-09-07T17:56:39.849Z,41.86
2022-09-07T18:01:53.634Z,42.04
2022-09-07T18:04:20.822Z,42.17
2022-09-07T18:06:47.678Z,42.14
2022-09-07T18:09:14.572Z,42.45
2022-09-07T18:11:49.589Z,42.53
2022-09-07T18:14:18.086Z,42.66
2022-09-07T18:16:46.004Z,42.62
2022-09-07T18:19:13.588Z,42.89
2022-09-07T18:21:42.499Z,42.79
2022-09-07T18:24:18.881Z,43.04
2022-09-07T18:26:51.303Z,43.28
2022-09-07T18:29:29.554Z,43.22
2022-09-07T18:31:59.010Z,43.53
2022-09-07T18:34:26.087Z,43.92
2022-09-07T18:36:52.959Z,44.12
2022-09-07T18:39:19.561Z,44.36
2022-09-07T18:41:46.194Z,45.19
2022-09-07T18:46:59.869Z,44.56
2022-09-07T18:49:26.458Z,44.50
2022-09-07T18:54:41.373Z,44.86
2022-09-07T18:57:08.243Z,45.38
2022-09-07T18:59:35.294Z,45.58
2022-09-07T19:02:04.695Z,46.44
2022-09-07T19:07:19.397Z,46.56
2022-09-07T19:09:45.997Z,46.20
2022-09-07T19:12:12.711Z,46.07
2022-09-07T19:14:39.348Z,46.48
2022-09-07T19:17:05.993Z,46.11
2022-09-07T19:19:32.551Z,46.66
2022-09-07T19:21:59.504Z,46.22
2022-09-07T19:24:26.125Z,46.74
2022-09-07T19:26:56.855Z,46.42
2022-09-07T19:29:27.147Z,46.13
2022-09-07T19:31:53.994Z,46.00
2022-09-07T19:34:20.717Z,45.90
2022-09-07T19:36:47.342Z,46.51
2022-09-07T19:39:14.167Z,47.05
2022-09-07T19:41:40.737Z,47.50
2022-09-07T19:44:08.476Z,47.54
2022-09-07T19:46:35.137Z,48.47
2022-09-07T19:49:01.816Z,48.48
2022-09-07T19:51:28.454Z,49.05
2022-09-07T19:53:55.082Z,49.49
2022-09-07T19:56:21.722Z,49.84
2022-09-07T19:58:49.573Z,50.92
2022-09-07T20:01:25.582Z,51.00
2022-09-07T20:04:01.487Z,50.28
2022-09-07T20:06:28.170Z,50.52
2022-09-07T20:08:56.437Z,50.69
2022-09-07T20:11:23.218Z,50.95
2022-09-07T20:13:49.787Z,51.56
2022-09-07T20:16:19.193Z,51.23
2022-09-07T20:18:46.259Z,50.96
2022-09-07T20:21:19.031Z,50.73
2022-09-07T20:23:46.124Z,50.48
2022-09-07T20:26:15.607Z,50.34
2022-09-07T20:28:43.001Z,50.24
2022-09-07T20:31:18.424Z,50.55
2022-09-07T20:33:46.280Z,50.81
2022-09-07T20:36:16.927Z,51.43
2022-09-07T20:38:46.159Z,51.30
2022-09-07T20:41:22.203Z,51.44
2022-09-07T20:43:50.384Z,50.64
2022-09-07T20:46:17.419Z,50.38
2022-09-07T20:48:44.957Z,49.65
2022-09-07T20:51:17.911Z,49.38
2022-09-07T20:53:47.819Z,49.67
2022-09-07T20:56:18.046Z,50.83
2022-09-07T20:58:46.296Z,50.29
2022-09-07T21:01:14.834Z,49.93
2022-09-07T21:03:53.371Z,50.22
2022-09-07T21:06:21.747Z,50.39
2022-09-07T21:08:49.724Z,50.30
2022-09-07T21:11:26.258Z,52.02
2022-09-07T21:14:05.255Z,51.49
2022-09-07T21:16:32.692Z,51.79
2022-09-07T21:19:00.992Z,52.78
2022-09-07T21:21:29.295Z,53.08
2022-09-07T21:24:00.921Z,53.82
2022-09-07T21:26:28.370Z,53.98
2022-09-07T21:29:04.800Z,54.19
2022-09-07T21:31:32.817Z,53.95
2022-09-07T21:34:01.277Z,54.10
2022-09-07T21:36:28.743Z,54.47
2022-09-07T21:38:55.412Z,54.69
2022-09-07T21:41:24.148Z,54.39
2022-09-07T21:43:58.094Z,54.17
2022-09-07T21:46:25.714Z,53.86
2022-09-07T21:48:52.880Z,54.13
2022-09-07T21:51:19.770Z,54.30
2022-09-07T21:53:51.602Z,54.79
2022-09-07T21:56:18.925Z,54.82
2022-09-07T21:58:45.687Z,55.39
2022-09-07T22:01:17.753Z,55.50
2022-09-07T22:03:46.963Z,56.64
2022-09-07T22:06:14.592Z,57.23
2022-09-07T22:08:42.356Z,58.00
2022-09-07T22:11:12.860Z,57.70
2022-09-07T22:13:40.127Z,56.60
2022-09-07T22:16:07.411Z,57.08
2022-09-07T22:18:35.181Z,57.65
2022-09-07T22:21:09.438Z,58.67
2022-09-07T22:23:39.106Z,58.73
2022-09-07T22:26:07.205Z,57.52
2022-09-07T22:28:34.875Z,58.08
2022-09-07T22:31:18.459Z,58.63
2022-09-07T22:33:46.635Z,59.34
2022-09-07T22:36:16.536Z,60.48
2022-09-07T22:38:44.952Z,60.69
2022-09-07T22:41:15.143Z,61.56
2022-09-07T22:43:42.692Z,61.00
2022-09-07T22:46:10.629Z,61.04
2022-09-07T22:48:38.677Z,60.38
2022-09-07T22:51:06.132Z,60.81
2022-09-07T22:53:35.079Z,60.40
2022-09-07T22:56:17.232Z,60.32
2022-09-07T22:58:57.818Z,60.09
2022-09-07T23:04:00.245Z,61.15
2022-09-07T23:06:33.281Z,61.40
2022-09-07T23:09:02.384Z,61.13
2022-09-07T23:11:29.195Z,60.89
2022-09-07T23:13:59.018Z,61.08
2022-09-07T23:16:26.701Z,62.50
2022-09-07T23:18:54.566Z,62.14
2022-09-07T23:21:21.589Z,61.44
2022-09-07T23:23:53.162Z,62.31
2022-09-07T23:26:21.415Z,63.91
2022-09-07T23:28:52.501Z,63.39
2022-09-07T23:31:19.673Z,63.05
2022-09-07T23:33:46.426Z,63.01
2022-09-07T23:36:13.099Z,62.83
2022-09-07T23:38:39.713Z,63.77
2022-09-07T23:41:06.492Z,64.25
2022-09-07T23:43:33.244Z,64.00
2022-09-07T23:46:00.275Z,63.54
2022-09-07T23:48:27.350Z,63.92
2022-09-07T23:50:54.253Z,64.18
2022-09-07T23:53:21.425Z,64.80
2022-09-07T23:55:52.626Z,64.54
2022-09-07T23:58:22.062Z,64.80
